createdAt,value
2017-03-31T00:00:29.234Z,112
2017-03-31T00:01:29.765Z,112
2017-03-31T00:02:30.287Z,112
2017-03-31T00:03:30.821Z,112
2017-03-31T00:04:31.358Z,112
2017-03-31T00:05:31.886Z,128
2017-03-31T00:06:32.415Z,128
2017-03-31T00:07:32.941Z,128
2017-03-31T00:08:33.478Z,128
2017-03-31T00:09:34.008Z,128
2017-03-31T00:10:34.532Z,128
2017-03-31T00:11:35.067Z,128
2017-03-31T00:12:35.596Z,128
2017-03-31T00:13:36.125Z,144
2017-03-31T00:14:36.662Z,144
2017-03-31T00:15:37.185Z,144
2017-03-31T00:16:37.719Z,144
2017-03-31T00:17:38.246Z,144
2017-03-31T00:18:38.780Z,144
2017-03-31T00:19:39.313Z,144
2017-03-31T00:20:39.993Z,144
2017-03-31T00:21:40.384Z,160
2017-03-31T00:22:40.914Z,160
2017-03-31T00:23:41.448Z,160
2017-03-31T00:24:42.136Z,160
2017-03-31T00:25:42.514Z,160
2017-03-31T00:26:43.090Z,160
2017-03-31T00:27:43.576Z,160
2017-03-31T00:28:44.102Z,160
2017-03-31T00:29:44.633Z,160
2017-03-31T00:30:45.164Z,160
2017-03-31T00:31:45.693Z,160
2017-03-31T00:32:46.222Z,160
2017-03-31T00:33:46.753Z,160
2017-03-31T00:34:47.286Z,160
2017-03-31T00:35:47.816Z,176
2017-03-31T00:36:48.343Z,176
2017-03-31T00:37:48.888Z,176
2017-03-31T00:38:49.406Z,176
2017-03-31T00:39:49.937Z,176
2017-03-31T00:40:50.465Z,176
2017-03-31T00:41:50.996Z,176
2017-03-31T00:42:51.531Z,176
2017-03-31T00:43:52.067Z,176
2017-03-31T00:44:52.590Z,176
2017-03-31T00:45:53.118Z,176
2017-03-31T00:46:53.797Z,176
2017-03-31T00:47:54.181Z,192
2017-03-31T00:48:54.705Z,176
2017-03-31T00:49:55.241Z,192
2017-03-31T00:50:55.768Z,192
2017-03-31T00:51:56.296Z,192
2017-03-31T00:52:56.831Z,192
2017-03-31T00:53:57.360Z,192
2017-03-31T00:54:57.900Z,192
2017-03-31T00:55:58.422Z,192
2017-03-31T00:56:58.953Z,192
2017-03-31T00:57:59.629Z,192
2017-03-31T00:59:00.016Z,208
2017-03-31T01:00:00.550Z,208
2017-03-31T01:01:01.080Z,208
2017-03-31T01:02:01.617Z,208
2017-03-31T01:03:02.145Z,208
2017-03-31T01:04:02.685Z,208
2017-03-31T01:05:03.219Z,208
2017-03-31T01:06:03.748Z,208
2017-03-31T01:07:04.276Z,208
2017-03-31T01:08:04.809Z,224
2017-03-31T01:09:05.342Z,208
2017-03-31T01:10:05.873Z,224
2017-03-31T01:11:06.434Z,224
2017-03-31T01:12:06.936Z,224
2017-03-31T01:13:07.465Z,224
2017-03-31T01:14:07.992Z,224
2017-03-31T01:15:08.671Z,224
2017-03-31T01:16:09.053Z,224
2017-03-31T01:17:09.580Z,224
2017-03-31T01:18:10.108Z,224
2017-03-31T01:19:10.643Z,224
2017-03-31T01:20:11.172Z,224
2017-03-31T01:21:11.701Z,224
2017-03-31T01:22:12.233Z,224
2017-03-31T01:23:12.761Z,224
2017-03-31T01:24:13.293Z,224
2017-03-31T01:25:13.973Z,240
2017-03-31T01:26:14.356Z,240
2017-03-31T01:27:14.884Z,240
2017-03-31T01:28:15.417Z,240
2017-03-31T01:29:15.942Z,240
2017-03-31T01:30:16.474Z,240
2017-03-31T01:31:17.004Z,240
2017-03-31T01:32:17.537Z,240
2017-03-31T01:33:18.065Z,240
2017-03-31T01:34:18.593Z,240
2017-03-31T01:35:19.126Z,240
2017-03-31T01:36:19.660Z,256
2017-03-31T01:37:20.187Z,256
2017-03-31T01:38:20.718Z,256
2017-03-31T01:39:21.249Z,256
2017-03-31T01:40:21.778Z,256
2017-03-31T01:41:22.312Z,256
2017-03-31T01:42:22.858Z,256
2017-03-31T01:43:23.381Z,256
2017-03-31T01:44:23.909Z,256
2017-03-31T01:45:24.444Z,256
2017-03-31T01:46:24.976Z,256
2017-03-31T01:47:25.505Z,256
2017-03-31T01:48:26.042Z,272
2017-03-31T01:49:26.572Z,272
2017-03-31T01:50:27.107Z,272
2017-03-31T01:51:27.639Z,272
2017-03-31T01:52:28.169Z,272
2017-03-31T01:53:28.698Z,272
2017-03-31T01:54:29.234Z,272
2017-03-31T01:55:29.765Z,272
2017-03-31T01:56:30.296Z,272
2017-03-31T01:57:30.824Z,272
2017-03-31T01:58:31.352Z,272
2017-03-31T01:59:31.887Z,272
2017-03-31T02:00:32.417Z,272
2017-03-31T02:01:32.942Z,272
2017-03-31T02:02:33.474Z,272
2017-03-31T02:03:34.005Z,272
2017-03-31T02:04:34.539Z,272
2017-03-31T02:05:35.069Z,272
2017-03-31T02:06:35.598Z,288
2017-03-31T02:07:36.129Z,272
2017-03-31T02:08:36.660Z,272
2017-03-31T02:09:37.190Z,288
2017-03-31T02:10:37.722Z,288
2017-03-31T02:11:38.287Z,288
2017-03-31T02:12:38.787Z,288
2017-03-31T02:13:39.328Z,288
2017-03-31T02:14:39.847Z,288
2017-03-31T02:15:40.371Z,288
2017-03-31T02:16:40.905Z,288
2017-03-31T02:17:41.438Z,288
2017-03-31T02:18:41.966Z,288
2017-03-31T02:19:42.492Z,288
2017-03-31T02:20:43.024Z,288
2017-03-31T02:21:43.551Z,288
2017-03-31T02:22:44.088Z,288
2017-03-31T02:23:44.617Z,288
2017-03-31T02:24:45.154Z,288
2017-03-31T02:25:45.842Z,288
2017-03-31T02:26:46.268Z,288
2017-03-31T02:27:46.755Z,288
2017-03-31T02:28:47.287Z,288
2017-03-31T02:29:47.971Z,288
2017-03-31T02:30:48.350Z,288
2017-03-31T02:31:48.886Z,288
2017-03-31T02:32:49.414Z,288
2017-03-31T02:33:49.948Z,288
2017-03-31T02:34:50.478Z,288
2017-03-31T02:35:51.157Z,288
2017-03-31T02:36:51.541Z,288
2017-03-31T02:37:52.072Z,288
2017-03-31T02:38:52.599Z,288
2017-03-31T02:39:53.146Z,288
2017-03-31T02:40:53.662Z,288
2017-03-31T02:41:54.194Z,288
2017-03-31T02:42:54.728Z,288
2017-03-31T02:43:55.257Z,288
2017-03-31T02:44:55.789Z,288
2017-03-31T02:45:56.321Z,288
2017-03-31T02:46:56.851Z,288
2017-03-31T02:47:57.384Z,288
2017-03-31T02:48:57.919Z,288
2017-03-31T02:49:58.446Z,288
2017-03-31T02:50:59.122Z,288
2017-03-31T02:51:59.504Z,288
2017-03-31T02:53:00.038Z,288
2017-03-31T02:54:00.567Z,288
2017-03-31T02:55:01.100Z,288
2017-03-31T02:56:01.625Z,288
2017-03-31T02:57:02.158Z,272
2017-03-31T02:58:02.684Z,272
2017-03-31T02:59:03.693Z,272
2017-03-31T03:00:03.756Z,272
2017-03-31T03:01:04.282Z,272
2017-03-31T03:02:04.808Z,272
2017-03-31T03:03:05.342Z,272
2017-03-31T03:04:05.869Z,272
2017-03-31T03:05:06.403Z,272
2017-03-31T03:06:06.933Z,272
2017-03-31T03:07:07.470Z,272
2017-03-31T03:08:08.014Z,272
2017-03-31T03:09:08.530Z,272
2017-03-31T03:10:09.061Z,272
2017-03-31T03:11:09.594Z,272
2017-03-31T03:12:10.119Z,272
2017-03-31T03:13:10.675Z,272
2017-03-31T03:14:11.187Z,272
2017-03-31T03:15:11.716Z,272
2017-03-31T03:16:12.252Z,272
2017-03-31T03:17:12.777Z,272
2017-03-31T03:18:13.302Z,272
2017-03-31T03:19:13.836Z,272
2017-03-31T03:20:14.367Z,256
2017-03-31T03:21:14.902Z,256
2017-03-31T03:22:15.430Z,256
2017-03-31T03:23:15.961Z,256
2017-03-31T03:24:16.489Z,256
2017-03-31T03:25:17.031Z,256
2017-03-31T03:26:17.555Z,256
2017-03-31T03:27:18.080Z,256
2017-03-31T03:28:18.610Z,256
2017-03-31T03:29:19.142Z,256
2017-03-31T03:30:19.677Z,256
2017-03-31T03:31:20.206Z,256
2017-03-31T03:32:20.738Z,256
2017-03-31T03:33:21.267Z,256
2017-03-31T03:34:21.809Z,240
2017-03-31T03:35:22.335Z,240
2017-03-31T03:36:22.860Z,240
2017-03-31T03:37:23.389Z,240
2017-03-31T03:38:24.085Z,240
2017-03-31T03:39:24.453Z,240
2017-03-31T03:40:24.989Z,240
2017-03-31T03:41:25.518Z,240
2017-03-31T03:42:26.048Z,240
2017-03-31T03:43:26.581Z,240
2017-03-31T03:44:27.108Z,240
2017-03-31T03:45:27.643Z,240
2017-03-31T03:46:28.172Z,240
2017-03-31T03:47:28.712Z,240
2017-03-31T03:48:29.248Z,240
2017-03-31T03:49:29.781Z,240
2017-03-31T03:50:30.313Z,240
2017-03-31T03:51:30.846Z,224
2017-03-31T03:52:31.372Z,224
2017-03-31T03:53:31.900Z,224
2017-03-31T03:54:32.428Z,224
2017-03-31T03:55:32.960Z,224
2017-03-31T03:56:33.488Z,224
2017-03-31T03:57:34.018Z,224
2017-03-31T03:58:34.549Z,224
2017-03-31T03:59:35.084Z,224
2017-03-31T04:00:35.610Z,224
2017-03-31T04:01:36.142Z,224
2017-03-31T04:02:36.672Z,224
2017-03-31T04:03:37.207Z,224
2017-03-31T04:04:37.733Z,224
2017-03-31T04:05:38.273Z,224
2017-03-31T04:06:38.799Z,224
2017-03-31T04:07:39.335Z,224
2017-03-31T04:08:39.862Z,224
2017-03-31T04:09:40.399Z,224
2017-03-31T04:10:40.921Z,224
2017-03-31T04:11:41.455Z,224
2017-03-31T04:12:41.980Z,224
2017-03-31T04:13:42.514Z,224
2017-03-31T04:14:43.042Z,224
2017-03-31T04:15:43.572Z,224
2017-03-31T04:16:44.107Z,224
2017-03-31T04:17:44.634Z,224
2017-03-31T04:18:45.159Z,224
2017-03-31T04:19:45.692Z,224
2017-03-31T04:20:46.222Z,224
2017-03-31T04:21:46.757Z,224
2017-03-31T04:22:47.279Z,224
2017-03-31T04:23:47.817Z,224
2017-03-31T04:24:48.350Z,224
2017-03-31T04:25:48.885Z,224
2017-03-31T04:26:49.460Z,224
2017-03-31T04:27:49.949Z,224
2017-03-31T04:28:50.636Z,224
2017-03-31T04:29:51.020Z,224
2017-03-31T04:30:51.553Z,208
2017-03-31T04:31:52.088Z,224
2017-03-31T04:32:52.614Z,208
2017-03-31T04:33:53.174Z,208
2017-03-31T04:34:53.671Z,208
2017-03-31T04:35:56.006Z,208
2017-03-31T04:36:54.734Z,208
2017-03-31T04:37:55.263Z,208
2017-03-31T04:38:55.796Z,208
2017-03-31T04:39:56.328Z,208
2017-03-31T04:40:56.866Z,208
2017-03-31T04:41:57.383Z,208
2017-03-31T04:42:57.917Z,208
2017-03-31T04:43:58.446Z,208
2017-03-31T04:44:58.979Z,208
2017-03-31T04:45:59.513Z,208
2017-03-31T04:47:00.041Z,208
2017-03-31T04:48:00.576Z,208
2017-03-31T04:49:01.101Z,208
2017-03-31T04:50:01.635Z,208
2017-03-31T04:51:02.185Z,208
2017-03-31T04:52:02.694Z,208
2017-03-31T04:53:03.224Z,208
2017-03-31T04:54:03.765Z,208
2017-03-31T04:55:04.295Z,208
2017-03-31T04:56:04.817Z,208
2017-03-31T04:57:05.357Z,208
2017-03-31T04:58:05.882Z,208
2017-03-31T04:59:06.411Z,208
2017-03-31T05:00:06.937Z,208
2017-03-31T05:01:07.469Z,208
2017-03-31T05:02:08.007Z,208
2017-03-31T05:03:08.536Z,208
2017-03-31T05:04:09.061Z,208
2017-03-31T05:05:09.585Z,208
2017-03-31T05:06:10.122Z,208
2017-03-31T05:07:10.648Z,208
2017-03-31T05:08:11.184Z,208
2017-03-31T05:09:11.718Z,208
2017-03-31T05:10:12.252Z,192
2017-03-31T05:11:12.786Z,192
2017-03-31T05:12:13.330Z,192
2017-03-31T05:13:13.856Z,192
2017-03-31T05:14:14.694Z,192
2017-03-31T05:15:14.915Z,192
2017-03-31T05:16:15.448Z,208
2017-03-31T05:17:15.976Z,192
2017-03-31T05:18:16.509Z,192
2017-03-31T05:19:17.038Z,192
2017-03-31T05:20:17.571Z,192
2017-03-31T05:21:18.097Z,192
2017-03-31T05:22:18.660Z,192
2017-03-31T05:23:19.161Z,192
2017-03-31T05:24:19.687Z,192
2017-03-31T05:25:20.225Z,192
2017-03-31T05:26:20.748Z,192
2017-03-31T05:27:21.277Z,192
2017-03-31T05:28:21.808Z,192
2017-03-31T05:29:22.336Z,192
2017-03-31T05:30:22.870Z,192
2017-03-31T05:31:23.399Z,192
2017-03-31T05:32:23.928Z,192
2017-03-31T05:33:24.462Z,192
2017-03-31T05:34:24.991Z,192
2017-03-31T05:35:25.521Z,192
2017-03-31T05:36:26.050Z,192
2017-03-31T05:37:26.589Z,192
2017-03-31T05:38:27.111Z,192
2017-03-31T05:39:27.640Z,192
2017-03-31T05:40:28.173Z,192
2017-03-31T05:41:28.702Z,192
2017-03-31T05:42:29.230Z,192
2017-03-31T05:43:29.755Z,192
2017-03-31T05:44:30.286Z,192
2017-03-31T05:45:30.815Z,192
2017-03-31T05:46:31.350Z,192
2017-03-31T05:47:31.887Z,192
2017-03-31T05:48:32.562Z,192
2017-03-31T05:49:32.950Z,192
2017-03-31T05:50:33.482Z,192
2017-03-31T05:51:34.015Z,192
2017-03-31T05:52:34.551Z,192
2017-03-31T05:53:35.081Z,192
2017-03-31T05:54:35.614Z,192
2017-03-31T05:55:36.146Z,192
2017-03-31T05:56:36.676Z,192
2017-03-31T05:57:37.200Z,192
2017-03-31T05:58:37.732Z,192
2017-03-31T05:59:38.260Z,192
2017-03-31T06:00:38.796Z,192
2017-03-31T06:01:39.329Z,192
2017-03-31T06:02:39.856Z,192
2017-03-31T06:03:40.392Z,192
2017-03-31T06:04:40.924Z,176
2017-03-31T06:05:41.449Z,176
2017-03-31T06:06:41.982Z,176
2017-03-31T06:07:42.510Z,176
2017-03-31T06:08:43.056Z,176
2017-03-31T06:09:43.572Z,176
2017-03-31T06:10:44.102Z,176
2017-03-31T06:11:44.631Z,176
2017-03-31T06:12:45.158Z,176
2017-03-31T06:13:45.691Z,176
2017-03-31T06:14:46.404Z,176
2017-03-31T06:15:46.750Z,176
2017-03-31T06:16:47.284Z,176
2017-03-31T06:17:47.814Z,176
2017-03-31T06:18:48.348Z,176
2017-03-31T06:19:48.873Z,176
2017-03-31T06:20:49.410Z,176
2017-03-31T06:21:49.945Z,176
2017-03-31T06:22:50.474Z,176
2017-03-31T06:23:51.004Z,176
2017-03-31T06:24:51.538Z,176
2017-03-31T06:25:52.068Z,160
2017-03-31T06:26:52.597Z,160
2017-03-31T06:27:53.128Z,160
2017-03-31T06:28:53.660Z,160
2017-03-31T06:29:54.195Z,160
2017-03-31T06:30:54.874Z,160
2017-03-31T06:31:55.266Z,160
2017-03-31T06:32:55.794Z,160
2017-03-31T06:33:56.324Z,160
2017-03-31T06:34:56.863Z,160
2017-03-31T06:35:57.393Z,160
2017-03-31T06:36:57.930Z,160
2017-03-31T06:37:58.456Z,160
2017-03-31T06:38:58.990Z,160
2017-03-31T06:39:59.514Z,160
2017-03-31T06:41:00.045Z,160
2017-03-31T06:42:00.577Z,160
2017-03-31T06:43:01.110Z,160
2017-03-31T06:44:01.635Z,160
2017-03-31T06:45:02.172Z,160
2017-03-31T06:46:02.697Z,160
2017-03-31T06:47:03.231Z,160
2017-03-31T06:48:03.911Z,160
2017-03-31T06:49:04.298Z,160
2017-03-31T06:50:04.828Z,160
2017-03-31T06:51:05.358Z,160
2017-03-31T06:52:05.886Z,160
2017-03-31T06:53:06.421Z,160
2017-03-31T06:54:06.951Z,160
2017-03-31T06:55:07.480Z,160
2017-03-31T06:56:08.309Z,160
2017-03-31T06:57:08.548Z,160
2017-03-31T06:58:09.076Z,160
2017-03-31T06:59:09.605Z,160
2017-03-31T07:00:10.148Z,160
2017-03-31T07:01:10.669Z,160
2017-03-31T07:02:11.194Z,160
2017-03-31T07:03:11.728Z,144
2017-03-31T07:04:12.257Z,144
2017-03-31T07:05:12.790Z,144
2017-03-31T07:06:13.321Z,144
2017-03-31T07:07:13.851Z,144
2017-03-31T07:08:14.391Z,144
2017-03-31T07:09:14.920Z,144
2017-03-31T07:10:15.454Z,144
2017-03-31T07:11:15.986Z,144
2017-03-31T07:12:16.528Z,144
2017-03-31T07:13:17.065Z,144
2017-03-31T07:14:17.737Z,144
2017-03-31T07:15:18.121Z,144
2017-03-31T07:16:18.662Z,144
2017-03-31T07:17:19.181Z,144
2017-03-31T07:18:19.709Z,144
2017-03-31T07:20:20.775Z,144
2017-03-31T07:21:21.297Z,144
2017-03-31T07:22:21.826Z,144
2017-03-31T07:23:22.357Z,144
2017-03-31T07:24:22.888Z,144
2017-03-31T07:25:23.425Z,144
2017-03-31T07:26:23.946Z,144
2017-03-31T07:27:24.477Z,144
2017-03-31T07:28:25.001Z,144
2017-03-31T07:29:25.533Z,144
2017-03-31T07:30:26.064Z,144
2017-03-31T07:31:26.595Z,144
2017-03-31T07:32:27.123Z,128
2017-03-31T07:33:27.666Z,128
2017-03-31T07:34:28.189Z,128
2017-03-31T07:35:28.718Z,144
2017-03-31T07:36:29.251Z,128
2017-03-31T07:37:29.779Z,128
2017-03-31T07:38:30.308Z,144
2017-03-31T07:39:30.839Z,144
2017-03-31T07:40:31.377Z,128
2017-03-31T07:41:31.897Z,128
2017-03-31T07:42:32.426Z,144
2017-03-31T07:43:32.955Z,144
2017-03-31T07:44:33.483Z,128
2017-03-31T07:45:34.028Z,128
2017-03-31T07:46:34.560Z,128
2017-03-31T07:47:35.075Z,128
2017-03-31T07:48:35.617Z,128
2017-03-31T07:49:36.133Z,128
2017-03-31T07:50:36.676Z,128
2017-03-31T07:51:37.200Z,128
2017-03-31T07:52:37.737Z,128
2017-03-31T07:53:38.275Z,128
2017-03-31T07:54:38.823Z,128
2017-03-31T07:55:39.341Z,128
2017-03-31T07:56:39.874Z,128
2017-03-31T07:57:40.404Z,128
2017-03-31T07:58:40.938Z,128
2017-03-31T07:59:41.465Z,128
2017-03-31T08:00:41.993Z,128
2017-03-31T08:01:42.529Z,128
2017-03-31T08:02:43.078Z,128
2017-03-31T08:03:43.587Z,128
2017-03-31T08:04:44.126Z,128
2017-03-31T08:05:44.650Z,128
2017-03-31T08:06:45.184Z,128
2017-03-31T08:07:45.711Z,128
2017-03-31T08:08:46.239Z,128
2017-03-31T08:09:46.917Z,128
2017-03-31T08:10:47.298Z,128
2017-03-31T08:11:47.850Z,128
2017-03-31T08:12:48.362Z,128
2017-03-31T08:13:48.894Z,128
2017-03-31T08:14:49.424Z,128
2017-03-31T08:15:49.954Z,128
2017-03-31T08:16:50.486Z,112
2017-03-31T08:17:51.013Z,128
2017-03-31T08:18:51.544Z,112
2017-03-31T08:19:52.079Z,112
2017-03-31T08:20:52.610Z,112
2017-03-31T08:21:53.135Z,112
2017-03-31T08:22:53.674Z,112
2017-03-31T08:23:54.193Z,112
2017-03-31T08:24:54.718Z,112
2017-03-31T08:25:55.250Z,112
2017-03-31T08:26:55.777Z,112
2017-03-31T08:27:56.309Z,112
2017-03-31T08:28:56.846Z,112
2017-03-31T08:29:57.373Z,112
2017-03-31T08:30:57.900Z,112
2017-03-31T08:31:58.436Z,112
2017-03-31T08:32:58.968Z,112
2017-03-31T08:33:59.500Z,112
2017-03-31T08:35:00.034Z,112
2017-03-31T08:36:00.570Z,112
2017-03-31T08:37:01.111Z,112
2017-03-31T08:38:01.635Z,112
2017-03-31T08:39:02.158Z,112
2017-03-31T08:40:02.696Z,112
2017-03-31T08:41:03.224Z,112
2017-03-31T08:42:03.757Z,112
2017-03-31T08:43:04.289Z,112
2017-03-31T08:44:05.020Z,112
2017-03-31T08:45:05.349Z,112
2017-03-31T08:46:05.881Z,112
2017-03-31T08:47:06.407Z,112
2017-03-31T08:48:06.938Z,112
2017-03-31T08:49:07.469Z,112
2017-03-31T08:50:07.999Z,112
2017-03-31T08:51:08.534Z,112
2017-03-31T08:52:09.363Z,112
2017-03-31T08:53:09.596Z,112
2017-03-31T08:54:10.126Z,112
2017-03-31T08:55:10.668Z,112
2017-03-31T08:56:11.187Z,96
2017-03-31T08:57:11.722Z,96
2017-03-31T08:58:12.250Z,96
2017-03-31T08:59:12.779Z,96
2017-03-31T09:00:13.309Z,96
2017-03-31T09:01:13.842Z,96
2017-03-31T09:02:14.372Z,96
2017-03-31T09:03:14.899Z,96
2017-03-31T09:04:15.434Z,96
2017-03-31T09:05:15.965Z,96
2017-03-31T09:06:16.492Z,96
2017-03-31T09:07:17.023Z,96
2017-03-31T09:08:17.551Z,96
2017-03-31T09:09:18.087Z,96
2017-03-31T09:10:18.611Z,96
2017-03-31T09:11:19.137Z,96
2017-03-31T09:12:19.670Z,96
2017-03-31T09:13:20.219Z,96
2017-03-31T09:14:20.740Z,96
2017-03-31T09:15:21.275Z,96
2017-03-31T09:16:21.813Z,96
2017-03-31T09:17:22.343Z,96
2017-03-31T09:18:23.020Z,96
2017-03-31T09:19:23.403Z,96
2017-03-31T09:20:23.934Z,96
2017-03-31T09:21:24.465Z,96
2017-03-31T09:22:24.995Z,96
2017-03-31T09:23:25.525Z,96
2017-03-31T09:24:26.054Z,96
2017-03-31T09:25:26.582Z,96
2017-03-31T09:26:27.110Z,96
2017-03-31T09:27:27.640Z,96
2017-03-31T09:28:28.173Z,96
2017-03-31T09:29:28.699Z,96
2017-03-31T09:30:29.234Z,80
2017-03-31T09:31:29.762Z,80
2017-03-31T09:32:30.290Z,80
2017-03-31T09:33:30.974Z,80
2017-03-31T09:34:31.355Z,80
2017-03-31T09:35:31.886Z,80
2017-03-31T09:36:32.413Z,80
2017-03-31T09:37:32.941Z,80
2017-03-31T09:38:33.480Z,80
2017-03-31T09:39:34.014Z,80
2017-03-31T09:40:34.539Z,80
2017-03-31T09:41:35.060Z,80
2017-03-31T09:42:35.593Z,80
2017-03-31T09:43:36.276Z,80
2017-03-31T09:44:36.658Z,80
2017-03-31T09:45:37.185Z,80
2017-03-31T09:46:37.862Z,80
2017-03-31T09:47:38.396Z,80
2017-03-31T09:48:38.779Z,80
2017-03-31T09:49:39.306Z,80
2017-03-31T09:50:39.844Z,80
2017-03-31T09:51:40.392Z,80
2017-03-31T09:52:41.052Z,80
2017-03-31T09:53:41.435Z,80
2017-03-31T09:54:41.969Z,80
2017-03-31T09:55:42.497Z,80
2017-03-31T09:56:43.039Z,80
2017-03-31T09:57:43.866Z,80
2017-03-31T09:58:44.247Z,80
2017-03-31T09:59:44.636Z,80
2017-03-31T10:00:45.163Z,80
2017-03-31T10:01:45.694Z,80
2017-03-31T10:02:46.365Z,80
2017-03-31T10:03:46.752Z,80
2017-03-31T10:04:47.309Z,80
2017-03-31T10:05:47.962Z,80
2017-03-31T10:06:48.338Z,64
2017-03-31T10:07:48.870Z,64
2017-03-31T10:08:49.400Z,64
2017-03-31T10:09:49.942Z,64
2017-03-31T10:10:50.465Z,64
2017-03-31T10:11:50.993Z,64
2017-03-31T10:12:51.530Z,64
2017-03-31T10:13:52.052Z,64
2017-03-31T10:14:52.594Z,64
2017-03-31T10:15:53.121Z,64
2017-03-31T10:16:53.645Z,64
2017-03-31T10:17:54.172Z,64
2017-03-31T10:18:54.708Z,64
2017-03-31T10:19:55.242Z,64
2017-03-31T10:20:55.768Z,64
2017-03-31T10:21:56.295Z,64
2017-03-31T10:22:56.823Z,64
2017-03-31T10:23:57.359Z,64
2017-03-31T10:24:57.887Z,64
2017-03-31T10:25:58.413Z,64
2017-03-31T10:26:58.952Z,64
2017-03-31T10:27:59.624Z,64
2017-03-31T10:29:00.010Z,64
2017-03-31T10:30:00.537Z,64
2017-03-31T10:31:01.217Z,64
2017-03-31T10:32:01.607Z,64
2017-03-31T10:33:02.141Z,64
2017-03-31T10:34:02.992Z,64
2017-03-31T10:35:03.241Z,64
2017-03-31T10:36:03.727Z,64
2017-03-31T10:37:04.275Z,64
2017-03-31T10:38:04.792Z,64
2017-03-31T10:39:05.324Z,64
2017-03-31T10:40:05.855Z,64
2017-03-31T10:41:06.383Z,64
2017-03-31T10:42:06.923Z,64
2017-03-31T10:43:07.602Z,64
2017-03-31T10:44:07.987Z,48
2017-03-31T10:45:08.513Z,64
2017-03-31T10:46:09.052Z,64
2017-03-31T10:47:09.572Z,48
2017-03-31T10:48:10.099Z,48
2017-03-31T10:49:10.642Z,48
2017-03-31T10:50:11.162Z,48
2017-03-31T10:51:11.697Z,64
2017-03-31T10:52:12.228Z,48
2017-03-31T10:53:12.759Z,48
2017-03-31T10:54:13.302Z,48
2017-03-31T10:55:13.965Z,48
2017-03-31T10:56:14.361Z,48
2017-03-31T10:57:14.883Z,48
2017-03-31T10:58:15.417Z,48
2017-03-31T10:59:15.946Z,48
2017-03-31T11:00:16.472Z,48
2017-03-31T11:01:17.009Z,48
2017-03-31T11:02:17.534Z,48
2017-03-31T11:03:18.059Z,48
2017-03-31T11:04:18.587Z,48
2017-03-31T11:05:19.117Z,48
2017-03-31T11:06:19.664Z,48
2017-03-31T11:07:20.180Z,48
2017-03-31T11:08:20.856Z,48
2017-03-31T11:09:21.247Z,48
2017-03-31T11:10:21.926Z,48
2017-03-31T11:11:22.310Z,48
2017-03-31T11:12:22.846Z,48
2017-03-31T11:13:23.365Z,48
2017-03-31T11:14:23.896Z,48
2017-03-31T11:15:24.431Z,48
2017-03-31T11:16:24.960Z,48
2017-03-31T11:17:25.500Z,48
2017-03-31T11:18:26.032Z,48
2017-03-31T11:19:26.569Z,48
2017-03-31T11:20:27.098Z,48
2017-03-31T11:21:27.635Z,48
2017-03-31T11:22:28.152Z,48
2017-03-31T11:23:28.681Z,48
2017-03-31T11:24:29.387Z,48
2017-03-31T11:25:29.746Z,48
2017-03-31T11:26:30.278Z,48
2017-03-31T11:27:30.804Z,48
2017-03-31T11:28:31.334Z,48
2017-03-31T11:29:31.863Z,48
2017-03-31T11:30:32.394Z,48
2017-03-31T11:31:32.925Z,48
2017-03-31T11:32:33.458Z,48
2017-03-31T11:33:33.986Z,48
2017-03-31T11:34:34.528Z,48
2017-03-31T11:35:35.054Z,48
2017-03-31T11:36:35.584Z,48
2017-03-31T11:37:36.107Z,48
2017-03-31T11:38:36.641Z,48
2017-03-31T11:39:37.169Z,48
2017-03-31T11:40:37.706Z,48
2017-03-31T11:41:38.230Z,48
2017-03-31T11:42:38.756Z,48
2017-03-31T11:43:39.294Z,48
2017-03-31T11:44:39.817Z,48
2017-03-31T11:45:40.348Z,48
2017-03-31T11:46:40.880Z,48
2017-03-31T11:47:41.406Z,48
2017-03-31T11:48:41.933Z,48
2017-03-31T11:49:42.468Z,48
2017-03-31T11:50:42.996Z,48
2017-03-31T11:51:43.526Z,48
2017-03-31T11:52:44.056Z,48
2017-03-31T11:53:44.585Z,48
2017-03-31T11:54:45.127Z,32
2017-03-31T11:55:45.656Z,48
2017-03-31T11:56:46.193Z,32
2017-03-31T11:57:46.727Z,32
2017-03-31T11:58:47.266Z,32
2017-03-31T11:59:47.793Z,32
2017-03-31T12:00:48.331Z,32
2017-03-31T12:01:48.857Z,32
2017-03-31T12:02:49.386Z,32
2017-03-31T12:03:49.916Z,32
2017-03-31T12:04:50.450Z,32
2017-03-31T12:05:50.973Z,32
2017-03-31T12:06:51.656Z,32
2017-03-31T12:07:52.035Z,32
2017-03-31T12:08:52.597Z,32
2017-03-31T12:09:53.091Z,32
2017-03-31T12:10:53.770Z,32
2017-03-31T12:11:54.149Z,32
2017-03-31T12:12:54.685Z,32
2017-03-31T12:13:55.211Z,32
2017-03-31T12:14:55.741Z,32
2017-03-31T12:15:56.279Z,32
2017-03-31T12:16:56.800Z,32
2017-03-31T12:17:57.335Z,32
2017-03-31T12:18:57.864Z,32
2017-03-31T12:19:58.402Z,32
2017-03-31T12:20:58.924Z,32
2017-03-31T12:21:59.457Z,32
2017-03-31T12:22:59.989Z,32
2017-03-31T12:24:00.519Z,32
2017-03-31T12:25:01.050Z,32
2017-03-31T12:26:01.584Z,32
2017-03-31T12:27:02.113Z,32
2017-03-31T12:28:02.643Z,32
2017-03-31T12:29:03.176Z,32
2017-03-31T12:30:03.697Z,32
2017-03-31T12:31:04.225Z,32
2017-03-31T12:32:04.758Z,32
2017-03-31T12:33:05.289Z,32
2017-03-31T12:34:05.816Z,32
2017-03-31T12:35:06.356Z,32
2017-03-31T12:36:06.881Z,32
2017-03-31T12:37:07.409Z,32
2017-03-31T12:38:07.950Z,32
2017-03-31T12:39:08.480Z,32
2017-03-31T12:40:09.031Z,32
2017-03-31T12:41:09.557Z,32
2017-03-31T12:42:10.083Z,32
2017-03-31T12:43:10.610Z,32
2017-03-31T12:44:11.143Z,32
2017-03-31T12:45:11.673Z,32
2017-03-31T12:46:12.206Z,32
2017-03-31T12:47:12.744Z,32
2017-03-31T12:48:13.269Z,32
2017-03-31T12:49:13.796Z,32
2017-03-31T12:50:14.331Z,32
2017-03-31T12:51:14.857Z,32
2017-03-31T12:52:15.539Z,32
2017-03-31T12:53:15.916Z,32
2017-03-31T12:54:16.447Z,32
2017-03-31T12:55:16.975Z,32
2017-03-31T12:56:17.516Z,32
2017-03-31T12:57:18.045Z,32
2017-03-31T12:58:18.564Z,32
2017-03-31T12:59:19.096Z,32
2017-03-31T13:00:19.627Z,32
2017-03-31T13:01:20.163Z,16
2017-03-31T13:02:20.709Z,32
2017-03-31T13:03:21.226Z,16
2017-03-31T13:04:21.758Z,16
2017-03-31T13:05:22.285Z,16
2017-03-31T13:06:22.814Z,16
2017-03-31T13:07:23.351Z,16
2017-03-31T13:08:23.881Z,32
2017-03-31T13:09:24.560Z,16
2017-03-31T13:10:24.947Z,16
2017-03-31T13:11:25.481Z,16
2017-03-31T13:12:26.011Z,16
2017-03-31T13:13:26.541Z,16
2017-03-31T13:14:27.073Z,16
2017-03-31T13:15:27.603Z,16
2017-03-31T13:16:28.137Z,16
2017-03-31T13:17:28.667Z,16
2017-03-31T13:18:29.203Z,16
2017-03-31T13:19:29.744Z,16
2017-03-31T13:20:30.269Z,16
2017-03-31T13:21:30.799Z,16
2017-03-31T13:22:31.330Z,16
2017-03-31T13:23:31.870Z,16
2017-03-31T13:24:32.397Z,16
2017-03-31T13:25:32.925Z,16
2017-03-31T13:26:33.457Z,16
2017-03-31T13:27:34.136Z,16
2017-03-31T13:28:34.518Z,16
2017-03-31T13:29:35.051Z,16
2017-03-31T13:30:35.574Z,16
2017-03-31T13:31:36.103Z,16
2017-03-31T13:32:36.636Z,16
2017-03-31T13:33:37.163Z,16
2017-03-31T13:34:37.692Z,16
2017-03-31T13:35:38.217Z,16
2017-03-31T13:36:38.750Z,16
2017-03-31T13:37:39.279Z,16
2017-03-31T13:38:39.813Z,16
2017-03-31T13:39:40.346Z,16
2017-03-31T13:40:40.873Z,16
2017-03-31T13:41:41.400Z,16
2017-03-31T13:42:41.932Z,16
2017-03-31T13:43:42.465Z,16
2017-03-31T13:44:43.141Z,16
2017-03-31T13:45:43.525Z,16
2017-03-31T13:46:44.053Z,16
2017-03-31T13:47:44.580Z,16
2017-03-31T13:48:45.115Z,16
2017-03-31T13:49:45.645Z,16
2017-03-31T13:50:46.176Z,16
2017-03-31T13:51:46.701Z,16
2017-03-31T13:52:47.403Z,16
2017-03-31T13:53:47.795Z,16
2017-03-31T13:54:48.292Z,16
2017-03-31T13:55:48.968Z,16
2017-03-31T13:56:49.354Z,16
2017-03-31T13:57:49.894Z,16
2017-03-31T13:58:50.413Z,16
2017-03-31T13:59:50.949Z,16
2017-03-31T14:00:51.487Z,16
2017-03-31T14:01:52.021Z,16
2017-03-31T14:02:52.549Z,16
2017-03-31T14:03:53.076Z,16
2017-03-31T14:04:53.605Z,16